createdAt,value
2018-05-17T00:03:13.277Z,90.70
2018-05-17T00:08:14.941Z,91.10
2018-05-17T00:13:16.455Z,90.40
2018-05-17T00:18:17.980Z,88.60
2018-05-17T00:23:19.547Z,87.60
2018-05-17T00:28:21.910Z,88.00
2018-05-17T00:33:23.438Z,88.00
2018-05-17T00:38:25.008Z,86.90
2018-05-17T00:43:26.551Z,85.90
2018-05-17T00:48:28.041Z,85.10
2018-05-17T00:53:30.436Z,86.10
2018-05-17T00:58:32.007Z,85.50
2018-05-17T01:03:33.522Z,85.20
2018-05-17T01:08:35.199Z,85.30
2018-05-17T01:13:36.718Z,85.70
2018-05-17T01:18:38.284Z,85.00
2018-05-17T01:23:39.903Z,84.20
2018-05-17T01:28:41.373Z,84.60
2018-05-17T01:33:42.839Z,84.60
2018-05-17T01:38:44.364Z,84.50
2018-05-17T01:43:45.963Z,85.50
2018-05-17T01:48:47.596Z,85.90
2018-05-17T01:53:49.046Z,85.20
2018-05-17T01:58:51.273Z,84.00
2018-05-17T02:03:52.844Z,84.00
2018-05-17T02:08:54.372Z,84.10
2018-05-17T02:13:55.888Z,81.80
2018-05-17T02:18:57.439Z,81.50
2018-05-17T02:23:58.967Z,80.70
2018-05-17T02:29:01.235Z,81.50
2018-05-17T02:34:02.789Z,81.40
2018-05-17T02:39:05.212Z,80.60
2018-05-17T02:44:07.482Z,82.30
2018-05-17T02:49:09.920Z,83.10
2018-05-17T02:54:11.435Z,83.10
2018-05-17T02:59:13.704Z,83.80
2018-05-17T03:04:15.195Z,83.80
2018-05-17T03:09:17.521Z,82.00
2018-05-17T03:14:19.188Z,82.00
2018-05-17T03:19:20.729Z,81.70
2018-05-17T03:24:23.064Z,81.20
2018-05-17T03:29:24.613Z,81.10
2018-05-17T03:34:26.192Z,80.70
2018-05-17T03:39:28.423Z,82.40
2018-05-17T03:44:30.689Z,81.90
2018-05-17T03:49:32.225Z,81.90
2018-05-17T03:54:33.778Z,81.40
2018-05-17T03:59:35.333Z,80.50
2018-05-17T04:04:55.291Z,79.50
2018-05-17T04:09:56.766Z,79.30
2018-05-17T04:14:58.257Z,77.20
2018-05-17T04:19:59.866Z,77.20
2018-05-17T04:25:01.437Z,78.10
2018-05-17T04:30:03.145Z,77.10
2018-05-17T04:35:04.689Z,77.40
2018-05-17T04:40:06.203Z,76.40
2018-05-17T04:45:07.754Z,75.10
2018-05-17T04:50:10.022Z,75.50
2018-05-17T04:55:11.588Z,75.50
2018-05-17T05:00:13.127Z,75.50
2018-05-17T05:05:14.667Z,74.20
2018-05-17T05:10:16.247Z,73.20
2018-05-17T05:15:17.881Z,74.30
2018-05-17T05:20:20.145Z,73.10
2018-05-17T05:25:21.864Z,73.00
2018-05-17T05:30:24.083Z,74.10
2018-05-17T05:35:25.610Z,74.00
2018-05-17T05:40:27.202Z,73.90
2018-05-17T05:45:28.706Z,72.80
2018-05-17T05:50:30.197Z,73.60
2018-05-17T05:55:32.549Z,73.60
2018-05-17T06:00:34.079Z,73.40
2018-05-17T06:05:35.525Z,73.60
2018-05-17T06:10:37.788Z,74.40
2018-05-17T06:15:39.272Z,74.40
2018-05-17T06:20:41.572Z,74.70
2018-05-17T06:25:43.109Z,74.60
2018-05-17T06:30:44.677Z,74.10
2018-05-17T06:35:46.215Z,73.50
2018-05-17T06:40:47.731Z,74.00
2018-05-17T06:45:49.998Z,74.00
2018-05-17T06:50:52.265Z,72.80
2018-05-17T06:55:53.739Z,72.80
2018-05-17T07:00:55.302Z,71.10
2018-05-17T07:05:56.987Z,69.30
2018-05-17T07:10:58.597Z,69.30
2018-05-17T07:16:00.072Z,70.10
2018-05-17T07:21:01.545Z,70.30
2018-05-17T07:26:03.093Z,69.00
2018-05-17T07:31:04.853Z,69.90
2018-05-17T07:36:07.141Z,68.30
2018-05-17T07:41:09.391Z,66.50
2018-05-17T07:46:10.830Z,66.60
2018-05-17T07:51:12.450Z,67.70
2018-05-17T07:56:14.700Z,65.70
2018-05-17T08:01:16.267Z,65.80
2018-05-17T08:06:17.864Z,65.80
2018-05-17T08:11:19.416Z,64.50
2018-05-17T08:16:20.955Z,62.30
2018-05-17T08:21:22.496Z,63.50
2018-05-17T08:26:24.091Z,59.50
2018-05-17T08:31:25.629Z,61.70
2018-05-17T08:36:27.336Z,58.60
2018-05-17T08:41:28.842Z,57.80
2018-05-17T08:46:30.379Z,59.70
2018-05-17T08:51:31.898Z,56.60
2018-05-17T08:56:34.169Z,60.80
2018-05-17T09:01:36.471Z,55.70
2018-05-17T09:06:38.740Z,55.30
2018-05-17T09:11:40.288Z,55.20
2018-05-17T09:16:41.856Z,55.10
2018-05-17T09:21:43.378Z,56.60
2018-05-17T09:26:44.912Z,53.80
2018-05-17T09:31:47.188Z,56.40
2018-05-17T09:36:49.491Z,54.00
2018-05-17T09:41:51.820Z,52.40
2018-05-17T09:46:53.647Z,52.30
2018-05-17T09:51:55.886Z,47.90
2018-05-17T09:56:57.470Z,47.80
2018-05-17T10:01:58.962Z,49.00
2018-05-17T10:07:01.258Z,48.80
2018-05-17T10:12:02.840Z,48.90
2018-05-17T10:17:04.355Z,48.40
2018-05-17T10:22:06.037Z,52.30
2018-05-17T10:27:07.657Z,50.10
2018-05-17T10:32:09.230Z,48.90
2018-05-17T10:37:10.746Z,49.30
2018-05-17T10:42:12.427Z,51.20
2018-05-17T10:47:13.899Z,51.20
2018-05-17T10:52:16.228Z,51.80
2018-05-17T10:57:17.791Z,51.70
2018-05-17T11:02:19.303Z,49.90
2018-05-17T11:07:21.074Z,47.50
2018-05-17T11:12:23.419Z,49.90
2018-05-17T11:17:24.973Z,50.00
2018-05-17T11:22:26.536Z,48.40
2018-05-17T11:27:28.116Z,54.10
2018-05-17T11:32:29.754Z,51.60
2018-05-17T11:37:32.031Z,53.80
2018-05-17T11:42:34.316Z,51.90
2018-05-17T11:47:35.858Z,52.00
2018-05-17T11:52:37.393Z,53.00
2018-05-17T11:57:38.942Z,51.10
2018-05-17T12:02:40.540Z,51.20
2018-05-17T12:07:42.130Z,49.90
2018-05-17T12:12:43.690Z,51.80
2018-05-17T12:17:45.255Z,50.20
2018-05-17T12:22:46.758Z,48.30
2018-05-17T12:27:48.291Z,50.40
2018-05-17T12:32:49.860Z,52.30
2018-05-17T12:37:51.425Z,53.70
2018-05-17T12:42:53.092Z,49.40
2018-05-17T12:47:54.763Z,52.10
2018-05-17T12:52:56.284Z,47.20
2018-05-17T12:57:58.553Z,48.10
2018-05-17T13:03:00.103Z,47.80
2018-05-17T13:08:01.754Z,51.60
2018-05-17T13:13:03.363Z,46.60
2018-05-17T13:18:04.844Z,45.50
2018-05-17T13:23:07.205Z,47.90
2018-05-17T13:28:08.979Z,47.60
2018-05-17T13:33:10.525Z,46.40
2018-05-17T13:38:12.064Z,48.90
2018-05-17T13:43:13.618Z,48.20
2018-05-17T13:48:15.185Z,46.20
2018-05-17T13:53:16.707Z,45.20
2018-05-17T13:58:18.254Z,45.90
2018-05-17T14:03:19.803Z,47.80
2018-05-17T14:08:21.321Z,48.30
2018-05-17T14:13:22.811Z,43.30
2018-05-17T14:18:25.127Z,46.00
2018-05-17T14:23:26.622Z,45.90
2018-05-17T14:28:28.223Z,43.70
2018-05-17T14:33:30.407Z,43.70
2018-05-17T14:38:32.642Z,41.20
2018-05-17T14:43:34.231Z,41.10
2018-05-17T14:48:35.789Z,42.20
2018-05-17T14:53:37.448Z,45.40
2018-05-17T14:58:38.955Z,43.50
2018-05-17T15:03:41.320Z,44.20
2018-05-17T15:08:42.962Z,44.30
2018-05-17T15:13:44.414Z,40.10
2018-05-17T15:18:46.073Z,42.60
2018-05-17T15:23:48.359Z,43.60
2018-05-17T15:28:50.700Z,41.60
2018-05-17T15:33:52.227Z,41.60
2018-05-17T15:38:53.700Z,40.80
2018-05-17T15:43:55.184Z,42.80
2018-05-17T15:48:56.733Z,42.80
2018-05-17T15:53:58.192Z,42.20
2018-05-17T15:58:59.726Z,42.20
2018-05-17T16:04:01.434Z,42.70
2018-05-17T16:09:02.971Z,44.00
2018-05-17T16:14:05.303Z,43.60
2018-05-17T16:19:06.844Z,43.60
2018-05-17T16:24:08.396Z,42.70
2018-05-17T16:29:10.805Z,44.20
2018-05-17T16:34:12.340Z,44.20
2018-05-17T16:39:13.796Z,42.80
2018-05-17T16:44:15.354Z,43.00
2018-05-17T16:49:16.885Z,43.10
2018-05-17T16:54:18.495Z,44.40
2018-05-17T16:59:19.841Z,44.70
2018-05-17T17:04:21.430Z,42.40
2018-05-17T17:09:22.948Z,44.90
2018-05-17T17:14:24.454Z,43.80
2018-05-17T17:19:26.016Z,43.60
2018-05-17T17:24:27.494Z,44.50
2018-05-17T17:29:29.016Z,45.80
2018-05-17T17:34:30.503Z,45.00
2018-05-17T17:39:32.038Z,45.10
2018-05-17T17:44:34.276Z,43.70
2018-05-17T17:49:35.728Z,43.70
2018-05-17T17:54:37.234Z,45.00
2018-05-17T17:59:38.725Z,45.80
2018-05-17T18:04:40.978Z,44.90
2018-05-17T18:09:42.475Z,44.90
2018-05-17T18:14:44.763Z,44.30
2018-05-17T18:19:47.024Z,44.90
2018-05-17T18:24:49.738Z,44.80
2018-05-17T18:29:51.894Z,45.50
2018-05-17T18:34:53.354Z,45.50
2018-05-17T18:39:54.865Z,45.10
2018-05-17T18:44:56.411Z,45.30
2018-05-17T18:49:57.956Z,46.60
2018-05-17T18:54:59.555Z,47.00
2018-05-17T19:00:01.916Z,47.50
2018-05-17T19:05:03.432Z,47.50
2018-05-17T19:10:04.910Z,48.30
2018-05-17T19:15:06.659Z,47.60
2018-05-17T19:20:08.884Z,48.60
2018-05-17T19:25:10.369Z,48.50
2018-05-17T19:30:11.824Z,49.40
2018-05-17T19:35:13.261Z,49.00
2018-05-17T19:40:14.813Z,49.70
2018-05-17T19:45:17.166Z,50.10
2018-05-17T19:50:18.643Z,50.00
2018-05-17T19:55:20.158Z,50.40
2018-05-17T20:00:21.738Z,51.10
2018-05-17T20:05:23.259Z,49.90
2018-05-17T20:10:25.504Z,51.20
2018-05-17T20:15:27.013Z,51.10
2018-05-17T20:20:29.216Z,50.30
2018-05-17T20:25:31.377Z,50.20
2018-05-17T20:30:33.628Z,50.50
2018-05-17T20:35:35.108Z,50.50
2018-05-17T20:40:36.605Z,50.40
2018-05-17T20:45:38.059Z,50.90
2018-05-17T20:50:40.232Z,51.90
2018-05-17T20:55:41.696Z,51.80
2018-05-17T21:00:43.222Z,52.50
2018-05-17T21:05:44.709Z,53.40
2018-05-17T21:10:46.184Z,53.10
2018-05-17T21:15:47.722Z,53.50
2018-05-17T21:20:49.455Z,53.70
2018-05-17T21:25:51.646Z,53.50
2018-05-17T21:30:53.919Z,53.90
2018-05-17T21:35:56.302Z,53.70
2018-05-17T21:40:58.552Z,53.10
2018-05-17T21:46:00.038Z,53.10
2018-05-17T21:51:01.525Z,54.30
2018-05-17T21:56:03.732Z,56.30
2018-05-17T22:01:05.242Z,56.20
2018-05-17T22:06:06.800Z,55.10
2018-05-17T22:11:08.264Z,54.30
2018-05-17T22:16:09.748Z,53.20
2018-05-17T22:21:11.247Z,53.20
2018-05-17T22:26:13.463Z,55.30
2018-05-17T22:31:14.953Z,55.20
2018-05-17T22:36:16.442Z,55.20
2018-05-17T22:41:17.933Z,56.30
2018-05-17T22:46:20.190Z,58.30
2018-05-17T22:51:21.703Z,58.20
2018-05-17T22:56:41.705Z,59.20
2018-05-17T23:01:43.379Z,58.60
2018-05-17T23:06:44.859Z,59.60
2018-05-17T23:11:46.381Z,59.20
2018-05-17T23:16:48.608Z,60.30
2018-05-17T23:21:50.162Z,60.30
2018-05-17T23:26:51.626Z,61.30
2018-05-17T23:31:53.151Z,62.10
2018-05-17T23:36:54.651Z,62.80
2018-05-17T23:41:56.213Z,64.80
2018-05-17T23:46:58.418Z,66.70
2018-05-17T23:51:59.871Z,66.60
2018-05-17T23:57:02.069Z,68.80
